createdAt,value
2023-04-15T00:01:47.788Z,4.00
2023-04-15T00:04:16.642Z,4.90
2023-04-15T00:06:53.563Z,3.30
2023-04-15T00:09:22.014Z,5.60
2023-04-15T00:11:50.664Z,5.10
2023-04-15T00:14:22.208Z,4.40
2023-04-15T00:16:55.703Z,3.70
2023-04-15T00:19:24.847Z,4.80
2023-04-15T00:21:53.228Z,4.90
2023-04-15T00:24:22.134Z,3.10
2023-04-15T00:26:50.405Z,4.40
2023-04-15T00:29:20.634Z,4.90
2023-04-15T00:31:48.851Z,5.60
2023-04-15T00:34:17.122Z,3.20
2023-04-15T00:36:47.815Z,3.90
2023-04-15T00:39:16.767Z,4.90
2023-04-15T00:41:45.776Z,6.30
2023-04-15T00:44:14.563Z,3.80
2023-04-15T00:46:42.827Z,5.30
2023-04-15T00:49:13.539Z,2.70
2023-04-15T00:51:43.799Z,3.90
2023-04-15T00:54:12.477Z,3.20
2023-04-15T00:56:42.262Z,11.10
2023-04-15T00:59:11.420Z,5.50
2023-04-15T01:01:39.871Z,4.30
2023-04-15T01:04:11.044Z,4.30
2023-04-15T01:06:39.529Z,2.80
2023-04-15T01:09:07.968Z,6.90
2023-04-15T01:11:41.691Z,4.10
2023-04-15T01:14:10.561Z,9.30
2023-04-15T01:16:39.986Z,8.40
2023-04-15T01:19:09.169Z,7.60
2023-04-15T01:21:39.805Z,5.30
2023-04-15T01:24:09.856Z,3.80
2023-04-15T01:26:41.060Z,4.70
2023-04-15T01:29:10.378Z,4.70
2023-04-15T01:31:38.822Z,3.50
2023-04-15T01:34:08.881Z,3.60
2023-04-15T01:36:37.394Z,6.50
2023-04-15T01:39:08.621Z,4.70
2023-04-15T01:41:37.844Z,5.40
2023-04-15T01:44:07.331Z,4.40
2023-04-15T01:46:38.109Z,4.10
2023-04-15T01:49:06.663Z,3.00
2023-04-15T01:51:35.247Z,3.70
2023-04-15T01:54:04.249Z,3.00
2023-04-15T01:56:33.611Z,4.30
2023-04-15T01:59:04.117Z,3.20
2023-04-15T02:01:32.445Z,3.60
2023-04-15T02:04:01.234Z,5.90
2023-04-15T02:06:29.943Z,4.00
2023-04-15T02:08:59.426Z,3.20
2023-04-15T02:11:27.841Z,3.30
2023-04-15T02:13:56.732Z,3.30
2023-04-15T02:16:26.620Z,3.30
2023-04-15T02:18:55.340Z,4.80
2023-04-15T02:21:26.744Z,3.60
2023-04-15T02:23:56.118Z,4.00
2023-04-15T02:26:25.914Z,3.70
2023-04-15T02:28:56.366Z,4.90
2023-04-15T02:31:25.143Z,5.10
2023-04-15T02:33:53.652Z,4.30
2023-04-15T02:36:22.155Z,3.70
2023-04-15T02:38:50.391Z,3.70
2023-04-15T02:41:18.876Z,4.00
2023-04-15T02:43:48.484Z,3.20
2023-04-15T02:46:17.085Z,4.40
2023-04-15T02:48:46.693Z,4.40
2023-04-15T02:51:20.941Z,3.80
2023-04-15T02:53:49.283Z,5.10
2023-04-15T02:56:20.440Z,3.70
2023-04-15T02:58:50.855Z,7.60
2023-04-15T03:01:20.657Z,4.80
2023-04-15T03:03:49.245Z,6.80
2023-04-15T03:06:17.745Z,4.20
2023-04-15T03:08:47.868Z,5.00
2023-04-15T03:11:17.274Z,4.60
2023-04-15T03:13:46.066Z,3.70
2023-04-15T03:16:26.622Z,4.30
2023-04-15T03:18:54.691Z,3.30
2023-04-15T03:21:24.767Z,5.80
2023-04-15T03:23:53.258Z,4.70
2023-04-15T03:26:31.871Z,4.00
2023-04-15T03:29:03.081Z,4.30
2023-04-15T03:31:33.484Z,5.10
2023-04-15T03:34:01.993Z,3.40
2023-04-15T03:36:32.242Z,5.30
2023-04-15T03:39:02.517Z,6.10
2023-04-15T03:41:31.133Z,3.70
2023-04-15T03:43:59.529Z,4.90
2023-04-15T03:46:28.707Z,5.40
2023-04-15T03:48:57.136Z,7.10
2023-04-15T03:51:26.714Z,6.20
2023-04-15T03:53:55.194Z,4.10
2023-04-15T03:56:23.397Z,4.00
2023-04-15T03:58:51.859Z,5.80
2023-04-15T04:01:20.039Z,5.20
2023-04-15T04:03:48.812Z,3.70
2023-04-15T04:06:20.379Z,3.60
2023-04-15T04:08:49.892Z,5.80
2023-04-15T04:11:18.274Z,5.30
2023-04-15T04:13:48.565Z,3.70
2023-04-15T04:16:17.889Z,4.70
2023-04-15T04:18:46.757Z,5.90
2023-04-15T04:21:15.084Z,4.30
2023-04-15T04:23:43.573Z,8.80
2023-04-15T04:26:11.868Z,4.00
2023-04-15T04:28:40.788Z,4.70
2023-04-15T04:31:09.641Z,4.90
2023-04-15T04:33:39.867Z,4.70
2023-04-15T04:36:08.030Z,3.70
2023-04-15T04:38:41.641Z,4.20
2023-04-15T04:41:10.343Z,4.60
2023-04-15T04:43:38.733Z,6.50
2023-04-15T04:46:07.027Z,6.50
2023-04-15T04:48:38.044Z,5.80
2023-04-15T04:51:07.955Z,4.60
2023-04-15T04:53:37.804Z,4.60
2023-04-15T04:56:06.365Z,4.20
2023-04-15T04:58:34.561Z,3.60
2023-04-15T05:01:04.030Z,5.80
2023-04-15T05:03:32.506Z,3.20
2023-04-15T05:06:01.145Z,4.00
2023-04-15T05:08:32.066Z,6.60
2023-04-15T05:11:00.770Z,2.60
2023-04-15T05:13:30.268Z,5.90
2023-04-15T05:16:01.530Z,3.80
2023-04-15T05:18:31.232Z,4.60
2023-04-15T05:20:59.929Z,3.80
2023-04-15T05:23:28.407Z,4.90
2023-04-15T05:26:02.618Z,3.80
2023-04-15T05:28:31.615Z,3.70
2023-04-15T05:31:00.007Z,5.20
2023-04-15T05:33:30.314Z,4.20
2023-04-15T05:35:59.534Z,4.70
2023-04-15T05:38:27.741Z,4.90
2023-04-15T05:40:56.135Z,4.00
2023-04-15T05:43:24.587Z,6.30
2023-04-15T05:45:55.946Z,6.70
2023-04-15T05:48:24.462Z,5.00
2023-04-15T05:50:52.895Z,5.60
2023-04-15T05:53:21.789Z,6.30
2023-04-15T05:55:49.956Z,6.80
2023-04-15T05:58:18.668Z,5.70
2023-04-15T06:00:46.945Z,4.50
2023-04-15T06:03:16.568Z,4.40
2023-04-15T06:05:45.241Z,4.10
2023-04-15T06:08:13.469Z,4.90
2023-04-15T06:10:41.802Z,5.00
2023-04-15T06:13:13.154Z,5.50
2023-04-15T06:15:42.371Z,6.20
2023-04-15T06:18:11.923Z,5.40
2023-04-15T06:20:40.458Z,4.40
2023-04-15T06:23:08.745Z,6.10
2023-04-15T06:25:37.013Z,3.50
2023-04-15T06:28:05.089Z,4.60
2023-04-15T06:30:33.479Z,4.00
2023-04-15T06:33:05.487Z,4.50
2023-04-15T06:35:33.767Z,3.70
2023-04-15T06:38:02.108Z,3.60
2023-04-15T06:40:30.800Z,4.30
2023-04-15T06:42:58.929Z,4.30
2023-04-15T06:45:31.586Z,3.90
2023-04-15T06:48:00.713Z,6.00
2023-04-15T06:50:29.166Z,5.30
2023-04-15T06:52:57.580Z,3.60
2023-04-15T06:55:26.052Z,3.10
2023-04-15T06:57:54.896Z,3.70
2023-04-15T07:00:25.741Z,3.10
2023-04-15T07:02:55.906Z,4.60
2023-04-15T07:05:25.504Z,4.90
2023-04-15T07:07:53.965Z,3.80
2023-04-15T07:10:23.347Z,4.80
2023-04-15T07:12:52.767Z,3.70
2023-04-15T07:15:21.153Z,3.10
2023-04-15T07:17:49.797Z,3.70
2023-04-15T07:20:19.316Z,3.00
2023-04-15T07:22:47.732Z,5.10
2023-04-15T07:25:20.232Z,4.00
2023-04-15T07:27:53.277Z,6.00
2023-04-15T07:30:21.479Z,4.40
2023-04-15T07:32:49.828Z,3.80
2023-04-15T07:35:21.466Z,4.20
2023-04-15T07:37:51.333Z,4.30
2023-04-15T07:40:19.957Z,3.50
2023-04-15T07:42:49.682Z,4.40
2023-04-15T07:45:18.121Z,6.20
2023-04-15T07:47:46.364Z,4.00
2023-04-15T07:50:15.721Z,3.40
2023-04-15T07:52:44.476Z,5.70
2023-04-15T07:55:12.786Z,3.90
2023-04-15T07:57:41.275Z,4.60
2023-04-15T08:00:10.268Z,4.30
2023-04-15T08:02:43.550Z,4.00
2023-04-15T08:05:14.190Z,3.40
2023-04-15T08:07:50.266Z,4.00
2023-04-15T08:10:18.445Z,4.10
2023-04-15T08:12:49.435Z,3.90
2023-04-15T08:15:23.566Z,3.90
2023-04-15T08:17:54.029Z,3.60
2023-04-15T08:20:22.423Z,3.40
2023-04-15T08:22:52.292Z,4.70
2023-04-15T08:25:21.726Z,4.40
2023-04-15T08:27:56.964Z,3.90
2023-04-15T08:30:28.213Z,3.50
2023-04-15T08:32:56.445Z,4.50
2023-04-15T08:35:26.132Z,3.40
2023-04-15T08:37:56.048Z,3.60
2023-04-15T08:40:24.506Z,3.40
2023-04-15T08:42:59.335Z,4.90
2023-04-15T08:45:28.745Z,4.20
2023-04-15T08:48:00.280Z,3.80
2023-04-15T08:50:28.813Z,3.80
2023-04-15T08:53:02.728Z,4.90
2023-04-15T08:55:34.696Z,6.20
2023-04-15T08:58:03.154Z,4.10
2023-04-15T09:00:34.819Z,4.80
2023-04-15T09:03:03.580Z,5.40
2023-04-15T09:05:33.744Z,4.40
2023-04-15T09:08:03.253Z,4.00
2023-04-15T09:10:31.919Z,4.20
2023-04-15T09:13:00.822Z,4.00
2023-04-15T09:15:30.052Z,5.70
2023-04-15T09:17:58.610Z,4.10
2023-04-15T09:20:27.501Z,5.80
2023-04-15T09:22:55.919Z,4.90
2023-04-15T09:25:32.204Z,4.10
2023-04-15T09:28:03.612Z,4.50
2023-04-15T09:30:31.786Z,4.80
2023-04-15T09:33:02.416Z,4.20
2023-04-15T09:35:31.163Z,6.00
2023-04-15T09:38:10.128Z,4.10
2023-04-15T09:40:40.309Z,4.50
2023-04-15T09:43:09.800Z,4.60
2023-04-15T09:45:38.251Z,4.40
2023-04-15T09:48:29.001Z,4.50
2023-04-15T09:50:58.367Z,4.30
2023-04-15T09:53:28.425Z,5.00
2023-04-15T09:55:59.117Z,5.30
2023-04-15T09:58:31.677Z,5.50
2023-04-15T10:01:00.589Z,4.30
2023-04-15T10:03:30.466Z,5.10
2023-04-15T10:06:00.088Z,5.40
2023-04-15T10:08:33.057Z,5.20
2023-04-15T10:11:02.262Z,5.00
2023-04-15T10:13:36.618Z,5.60
2023-04-15T10:16:13.022Z,4.30
2023-04-15T10:18:44.120Z,6.50
2023-04-15T10:21:14.046Z,4.70
2023-04-15T10:23:42.111Z,4.50
2023-04-15T10:26:12.481Z,4.20
2023-04-15T10:28:41.767Z,3.80
2023-04-15T10:31:12.694Z,3.90
2023-04-15T10:33:41.888Z,3.80
2023-04-15T10:36:11.763Z,3.90
2023-04-15T10:38:46.916Z,4.60
2023-04-15T10:41:25.989Z,4.50
2023-04-15T10:44:03.449Z,4.20
2023-04-15T10:46:38.764Z,7.20
2023-04-15T10:49:09.155Z,3.30
2023-04-15T10:51:43.822Z,4.30
2023-04-15T10:54:16.296Z,3.90
2023-04-15T10:56:53.003Z,5.20
2023-04-15T10:59:22.396Z,5.70
2023-04-15T11:02:02.003Z,7.60
2023-04-15T11:04:57.629Z,5.50
2023-04-15T11:07:48.730Z,5.20
2023-04-15T11:10:26.348Z,5.80
2023-04-15T11:12:58.277Z,5.40
2023-04-15T11:15:38.083Z,7.10
2023-04-15T11:18:22.412Z,4.80
2023-04-15T11:20:56.619Z,5.80
2023-04-15T11:23:35.369Z,6.20
2023-04-15T11:26:07.052Z,6.70
2023-04-15T11:28:36.797Z,7.50
2023-04-15T11:31:11.396Z,6.70
2023-04-15T11:33:46.094Z,7.00
2023-04-15T11:36:14.486Z,6.00
2023-04-15T11:38:44.396Z,6.10
2023-04-15T11:41:12.850Z,6.80
2023-04-15T11:43:41.738Z,7.50
2023-04-15T11:46:10.287Z,6.60
2023-04-15T11:48:46.370Z,7.00
2023-04-15T11:51:14.910Z,5.40
2023-04-15T11:53:47.669Z,8.60
2023-04-15T11:56:21.359Z,6.70
2023-04-15T11:58:58.465Z,7.10
2023-04-15T12:01:35.211Z,7.50
2023-04-15T12:06:35.236Z,6.90
2023-04-15T12:09:16.825Z,8.50
2023-04-15T12:11:49.275Z,9.00
2023-04-15T12:14:30.315Z,7.30
2023-04-15T12:17:05.619Z,6.40
2023-04-15T12:19:37.770Z,6.50
2023-04-15T12:22:10.222Z,9.80
2023-04-15T12:24:39.608Z,7.60
2023-04-15T12:27:09.296Z,8.40
2023-04-15T12:29:38.859Z,7.20
2023-04-15T12:32:13.683Z,9.90
2023-04-15T12:34:50.565Z,8.50
2023-04-15T12:39:49.324Z,8.30
2023-04-15T12:42:18.665Z,7.30
2023-04-15T12:44:47.171Z,7.50
2023-04-15T12:47:15.435Z,8.60
2023-04-15T12:49:46.748Z,7.20
2023-04-15T12:52:16.779Z,8.70
2023-04-15T12:54:45.150Z,6.80
2023-04-15T12:57:13.608Z,6.90
2023-04-15T12:59:42.017Z,7.00
2023-04-15T13:02:10.297Z,6.60
2023-04-15T13:04:39.818Z,7.10
2023-04-15T13:07:09.335Z,6.20
2023-04-15T13:09:38.266Z,7.40
2023-04-15T13:12:06.694Z,7.30
2023-04-15T13:14:37.026Z,9.40
2023-04-15T13:17:10.338Z,7.80
2023-04-15T13:19:38.989Z,7.30
2023-04-15T13:22:08.559Z,7.60
2023-04-15T13:24:37.246Z,6.00
2023-04-15T13:27:06.002Z,7.70
2023-04-15T13:29:35.520Z,8.30
2023-04-15T13:32:04.631Z,7.80
2023-04-15T13:34:32.946Z,9.70
2023-04-15T13:37:09.424Z,9.70
2023-04-15T13:39:37.945Z,12.90
2023-04-15T13:42:06.502Z,11.30
2023-04-15T13:44:35.847Z,10.50
2023-04-15T13:47:04.022Z,12.90
2023-04-15T13:49:32.822Z,12.60
2023-04-15T13:52:01.090Z,15.80
2023-04-15T13:54:37.450Z,20.30
2023-04-15T13:57:06.670Z,15.30
2023-04-15T13:59:35.244Z,14.20
2023-04-15T14:02:03.795Z,14.20
2023-04-15T14:04:32.394Z,14.20
2023-04-15T14:07:01.194Z,13.70
2023-04-15T14:09:30.642Z,12.20
2023-04-15T14:12:00.328Z,11.00
2023-04-15T14:14:28.660Z,11.30
2023-04-15T14:16:57.380Z,10.90
2023-04-15T14:19:25.568Z,10.70
2023-04-15T14:21:53.960Z,10.50
2023-04-15T14:24:22.053Z,10.70
2023-04-15T14:26:50.466Z,12.70
2023-04-15T14:29:18.603Z,11.80
2023-04-15T14:32:11.413Z,14.60
2023-04-15T14:34:34.887Z,15.00
2023-04-15T14:37:03.357Z,12.50
2023-04-15T14:39:31.467Z,12.10
2023-04-15T14:42:00.001Z,11.60
2023-04-15T14:44:28.446Z,13.00
2023-04-15T14:46:56.728Z,13.40
2023-04-15T14:49:25.312Z,15.10
2023-04-15T14:51:53.488Z,14.50
2023-04-15T14:54:22.554Z,15.20
2023-04-15T14:56:50.980Z,13.40
2023-04-15T14:59:19.170Z,11.50
2023-04-15T15:01:47.671Z,16.50
2023-04-15T15:04:16.372Z,15.40
2023-04-15T15:06:45.107Z,16.10
2023-04-15T15:09:14.424Z,15.50
2023-04-15T15:11:42.604Z,14.00
2023-04-15T15:14:11.302Z,14.30
2023-04-15T15:16:40.086Z,12.90
2023-04-15T15:19:08.285Z,14.80
2023-04-15T15:21:37.875Z,11.40
2023-04-15T15:24:06.494Z,11.80
2023-04-15T15:26:34.853Z,10.90
2023-04-15T15:29:03.330Z,11.90
2023-04-15T15:31:31.646Z,13.30
2023-04-15T15:34:00.300Z,12.10
2023-04-15T15:36:28.466Z,11.20
2023-04-15T15:38:56.569Z,11.70
2023-04-15T15:41:26.067Z,11.50
2023-04-15T15:43:54.394Z,12.70
2023-04-15T15:46:24.453Z,11.60
2023-04-15T15:48:52.876Z,9.70
2023-04-15T15:51:21.552Z,11.40
2023-04-15T15:53:49.883Z,11.10
2023-04-15T15:56:19.145Z,9.60
2023-04-15T15:58:48.062Z,12.50
2023-04-15T16:01:16.325Z,11.80
2023-04-15T16:03:44.684Z,14.90
2023-04-15T16:06:13.173Z,14.60
2023-04-15T16:08:43.952Z,14.50
2023-04-15T16:11:12.088Z,11.70
2023-04-15T16:13:40.369Z,11.80
2023-04-15T16:16:09.101Z,12.50
2023-04-15T16:18:37.328Z,12.20
2023-04-15T16:21:05.829Z,11.70
2023-04-15T16:23:33.976Z,11.00
2023-04-15T16:26:02.325Z,12.50
2023-04-15T16:28:30.775Z,11.60
2023-04-15T16:30:59.562Z,11.30
2023-04-15T16:33:27.730Z,13.20
2023-04-15T16:35:55.921Z,12.80
2023-04-15T16:38:25.023Z,8.20
2023-04-15T16:40:53.295Z,10.90
2023-04-15T16:43:21.685Z,11.60
2023-04-15T16:45:51.541Z,11.80
2023-04-15T16:48:20.353Z,9.70
2023-04-15T16:50:49.424Z,9.00
2023-04-15T16:53:17.990Z,8.90
2023-04-15T16:55:46.354Z,10.30
2023-04-15T16:58:15.295Z,8.20
2023-04-15T17:00:44.149Z,8.90
2023-04-15T17:03:12.595Z,8.90
2023-04-15T17:05:42.521Z,8.80
2023-04-15T17:08:10.752Z,9.10
2023-04-15T17:10:39.008Z,10.30
2023-04-15T17:13:07.374Z,10.40
2023-04-15T17:15:37.193Z,10.40
2023-04-15T17:18:05.737Z,10.50
2023-04-15T17:20:34.845Z,14.80
2023-04-15T17:23:04.302Z,13.60
2023-04-15T17:25:32.486Z,9.90
2023-04-15T17:28:01.072Z,9.30
2023-04-15T17:30:29.661Z,9.50
2023-04-15T17:32:58.187Z,10.60
2023-04-15T17:35:26.852Z,9.40
2023-04-15T17:37:55.625Z,11.10
2023-04-15T17:40:23.906Z,8.90
2023-04-15T17:42:52.409Z,13.50
2023-04-15T17:45:20.982Z,10.00
2023-04-15T17:47:49.318Z,11.00
2023-04-15T17:50:19.001Z,9.90
2023-04-15T17:52:48.489Z,9.90
2023-04-15T17:55:16.974Z,10.30
2023-04-15T17:57:46.505Z,11.10
2023-04-15T18:00:15.063Z,12.30
2023-04-15T18:02:43.445Z,9.50
2023-04-15T18:05:12.095Z,10.80
2023-04-15T18:07:40.685Z,12.30
2023-04-15T18:10:09.616Z,9.30
2023-04-15T18:12:38.032Z,8.20
2023-04-15T18:15:07.580Z,8.90
2023-04-15T18:17:36.313Z,9.20
2023-04-15T18:20:05.752Z,7.20
2023-04-15T18:22:33.992Z,10.10
2023-04-15T18:25:04.649Z,8.40
2023-04-15T18:27:39.563Z,8.70
2023-04-15T18:30:09.278Z,8.00
2023-04-15T18:32:38.626Z,7.50
2023-04-15T18:35:07.580Z,8.80
2023-04-15T18:37:36.788Z,10.30
2023-04-15T18:40:06.620Z,8.30
2023-04-15T18:42:34.978Z,9.80
2023-04-15T18:45:04.387Z,7.70
2023-04-15T18:47:33.604Z,10.90
2023-04-15T18:50:02.329Z,9.90
2023-04-15T18:52:31.688Z,9.00
2023-04-15T18:55:00.773Z,10.60
2023-04-15T18:57:35.746Z,8.40
2023-04-15T19:00:05.441Z,8.90
2023-04-15T19:02:34.161Z,7.10
2023-04-15T19:05:04.360Z,8.60
2023-04-15T19:07:32.726Z,9.40
2023-04-15T19:10:01.008Z,11.10
2023-04-15T19:12:29.488Z,7.60
2023-04-15T19:14:57.887Z,7.20
2023-04-15T19:17:26.707Z,8.30
2023-04-15T19:19:55.035Z,5.90
2023-04-15T19:22:23.414Z,7.50
2023-04-15T19:24:52.221Z,7.60
2023-04-15T19:27:20.604Z,9.80
2023-04-15T19:29:48.782Z,6.80
2023-04-15T19:32:18.350Z,8.20
2023-04-15T19:34:46.675Z,7.20
2023-04-15T19:37:15.267Z,6.40
2023-04-15T19:39:43.854Z,6.10
2023-04-15T19:42:12.891Z,8.50
2023-04-15T19:44:44.162Z,9.20
2023-04-15T19:47:13.097Z,8.60
2023-04-15T19:49:41.360Z,8.00
2023-04-15T19:52:09.659Z,11.80
2023-04-15T19:54:37.863Z,11.90
2023-04-15T19:57:06.729Z,11.20
2023-04-15T19:59:35.136Z,10.30
2023-04-15T20:02:03.536Z,13.80
2023-04-15T20:04:32.378Z,11.90
2023-04-15T20:07:01.189Z,13.20
2023-04-15T20:09:29.658Z,8.60
2023-04-15T20:12:06.131Z,12.30
2023-04-15T20:14:47.215Z,9.30
2023-04-15T20:17:15.882Z,12.80
2023-04-15T20:19:44.281Z,14.90
2023-04-15T20:22:12.475Z,12.90
2023-04-15T20:24:40.878Z,9.10
2023-04-15T20:27:09.335Z,17.60
2023-04-15T20:29:38.035Z,9.90
2023-04-15T20:32:06.990Z,9.50
2023-04-15T20:34:35.398Z,8.00
2023-04-15T20:37:03.695Z,11.60
2023-04-15T20:39:31.914Z,11.10
2023-04-15T20:42:00.113Z,10.80
2023-04-15T20:44:28.379Z,9.10
2023-04-15T20:46:56.735Z,9.60
2023-04-15T20:49:25.081Z,8.20
2023-04-15T20:51:53.464Z,13.00
2023-04-15T20:54:22.057Z,10.10
2023-04-15T20:56:50.240Z,7.60
2023-04-15T20:59:18.517Z,11.70
2023-04-15T21:01:46.608Z,15.60
2023-04-15T21:04:15.168Z,10.60
2023-04-15T21:06:43.453Z,8.00
2023-04-15T21:09:11.738Z,6.50
2023-04-15T21:11:57.495Z,7.30
2023-04-15T21:14:28.222Z,7.90
2023-04-15T21:16:59.655Z,7.70
2023-04-15T21:19:27.890Z,6.70
2023-04-15T21:21:56.176Z,6.90
2023-04-15T21:24:24.431Z,6.10
2023-04-15T21:26:53.154Z,6.40
2023-04-15T21:29:21.440Z,6.70
2023-04-15T21:31:50.069Z,6.90
2023-04-15T21:34:18.398Z,7.00
2023-04-15T21:36:46.848Z,6.80
2023-04-15T21:39:14.958Z,7.20
2023-04-15T21:41:43.402Z,7.20
2023-04-15T21:44:14.459Z,9.70
2023-04-15T21:46:46.135Z,9.10
2023-04-15T21:49:14.727Z,9.00
2023-04-15T21:51:43.129Z,12.30
2023-04-15T21:54:11.401Z,14.30
2023-04-15T21:56:39.680Z,14.30
2023-04-15T21:59:08.162Z,10.60
2023-04-15T22:01:36.692Z,13.00
2023-04-15T22:04:07.586Z,11.90
2023-04-15T22:06:36.471Z,11.80
2023-04-15T22:09:04.983Z,14.20
2023-04-15T22:11:33.656Z,10.10
2023-04-15T22:14:02.031Z,12.10
2023-04-15T22:16:31.488Z,9.00
2023-04-15T22:18:59.828Z,8.40
2023-04-15T22:21:28.517Z,9.10
2023-04-15T22:24:38.147Z,12.20
2023-04-15T22:26:44.947Z,9.00
2023-04-15T22:29:13.118Z,10.10
2023-04-15T22:31:42.045Z,9.00
2023-04-15T22:34:10.304Z,7.40
2023-04-15T22:36:38.667Z,7.50
2023-04-15T22:39:07.188Z,10.40
2023-04-15T22:41:35.929Z,7.40
2023-04-15T22:44:04.305Z,7.90
2023-04-15T22:46:33.791Z,10.20
2023-04-15T22:49:02.127Z,8.90
2023-04-15T22:51:30.408Z,8.60
2023-04-15T22:53:58.673Z,7.10
2023-04-15T22:56:26.964Z,7.10
2023-04-15T22:58:55.335Z,6.90
2023-04-15T23:01:23.855Z,9.50
2023-04-15T23:03:56.946Z,8.70
2023-04-15T23:06:34.416Z,6.60
2023-04-15T23:09:02.685Z,8.40
2023-04-15T23:11:30.924Z,8.70
2023-04-15T23:13:59.146Z,6.00
2023-04-15T23:16:27.539Z,8.60
2023-04-15T23:18:55.809Z,10.10
2023-04-15T23:21:25.890Z,7.30
2023-04-15T23:23:54.464Z,8.20
2023-04-15T23:26:22.697Z,9.10
2023-04-15T23:28:51.089Z,7.20
2023-04-15T23:31:19.415Z,9.90
2023-04-15T23:33:47.771Z,10.20
2023-04-15T23:36:16.265Z,9.60
2023-04-15T23:38:44.788Z,10.20
2023-04-15T23:41:13.611Z,8.80
2023-04-15T23:43:41.693Z,14.10
2023-04-15T23:46:09.969Z,8.60
2023-04-15T23:48:38.663Z,10.50
2023-04-15T23:51:07.142Z,9.70
2023-04-15T23:53:36.043Z,9.30
2023-04-15T23:56:04.832Z,10.80
2023-04-15T23:58:34.696Z,12.30
